Time,TemperatureF,DewpointF,PressureIn,WindDirection,WindDirectionDegrees,WindSpeedMPH,WindSpeedGustMPH,Humidity,HourlyPrecipIn,Conditions,Clouds,dailyrainin,SoftwareType,DateUTC
2013-03-02 00:09:00,37.4,37.1,29.71,West,270,4.7,-999.0,99,-99.99,,,0.00,Acu-Link.com,2013-03-02 05:09:00,
2013-03-02 00:24:00,36.9,36.6,29.71,West,270,8.3,-999.0,99,-99.99,,,0.00,Acu-Link.com,2013-03-02 05:24:00,
2013-03-02 00:40:00,36.5,36.2,29.71,WNW,292,4.7,-999.0,99,-99.99,,,0.00,Acu-Link.com,2013-03-02 05:40:00,
2013-03-02 00:55:00,36.1,35.9,29.71,WSW,247,3.1,-999.0,99,-99.99,,,0.00,Acu-Link.com,2013-03-02 05:55:00,
2013-03-02 01:10:00,36.0,35.7,29.71,NW,315,4.3,-999.0,99,-99.99,,,0.00,Acu-Link.com,2013-03-02 06:10:00,
2013-03-02 01:25:00,35.4,35.2,29.71,WNW,292,3.1,-999.0,99,-99.99,,,0.00,Acu-Link.com,2013-03-02 06:25:00,
2013-03-02 01:40:00,34.9,34.6,29.71,West,270,1.6,-999.0,99,-99.99,,,0.00,Acu-Link.com,2013-03-02 06:40:00,
2013-03-02 01:56:00,34.3,34.1,29.71,West,270,2.7,-999.0,99,-99.99,,,0.00,Acu-Link.com,2013-03-02 06:56:00,
2013-03-02 02:11:00,34.0,33.7,29.70,West,270,4.7,-999.0,99,-99.99,,,0.00,Acu-Link.com,2013-03-02 07:11:00,
2013-03-02 02:26:00,33.8,33.5,29.70,West,270,4.7,-999.0,99,-99.99,,,0.00,Acu-Link.com,2013-03-02 07:26:00,
2013-03-02 02:41:00,33.8,33.5,29.69,ESE,112,3.8,-999.0,99,-99.99,,,0.00,Acu-Link.com,2013-03-02 07:41:00,
2013-03-02 02:57:00,33.1,32.8,29.69,NW,315,3.8,-999.0,99,-99.99,,,0.00,Acu-Link.com,2013-03-02 07:57:00,
2013-03-02 03:12:00,32.7,32.5,29.69,NNE,22,2.2,-999.0,99,-99.99,,,0.00,Acu-Link.com,2013-03-02 08:12:00,
2013-03-02 03:27:00,32.5,9.8,29.69,WSW,247,5.1,-999.0,38,-99.99,,,0.00,Acu-Link.com,2013-03-02 08:27:00,
2013-03-02 03:42:00,32.2,31.7,29.70,NNW,337,3.8,-999.0,98,-99.99,,,0.00,Acu-Link.com,2013-03-02 08:42:00,
2013-03-02 03:57:00,31.8,31.3,29.69,West,270,4.7,-999.0,98,-99.99,,,0.00,Acu-Link.com,2013-03-02 08:57:00,
2013-03-02 04:18:00,31.8,31.3,29.69,North,0,3.8,-999.0,98,-99.99,,,0.00,Acu-Link.com,2013-03-02 09:18:00,
2013-03-02 04:33:00,31.8,31.3,29.70,West,270,3.8,-999.0,98,-99.99,,,0.00,Acu-Link.com,2013-03-02 09:33:00,
2013-03-02 04:55:00,31.5,31.0,29.71,WSW,247,3.8,-999.0,98,-99.99,,,0.00,Acu-Link.com,2013-03-02 09:55:00,
2013-03-02 05:10:00,32.0,31.5,29.71,NNE,22,5.1,-999.0,98,-99.99,,,0.00,Acu-Link.com,2013-03-02 10:10:00,
2013-03-02 05:25:00,32.4,31.9,29.71,NNW,337,4.3,-999.0,98,-99.99,,,0.00,Acu-Link.com,2013-03-02 10:25:00,
2013-03-02 05:40:00,32.5,32.0,29.71,East,90,3.1,-999.0,98,-99.99,,,0.00,Acu-Link.com,2013-03-02 10:40:00,
2013-03-02 05:56:00,32.9,-19.7,29.70,West,270,6.3,-999.0,9,-99.99,,,0.00,Acu-Link.com,2013-03-02 10:56:00,
2013-03-02 06:11:00,32.9,32.7,29.70,SW,225,5.1,-999.0,99,-99.99,,,0.00,Acu-Link.com,2013-03-02 11:11:00,
2013-03-02 06:26:00,32.9,32.7,29.70,West,270,4.7,-999.0,99,-99.99,,,0.00,Acu-Link.com,2013-03-02 11:26:00,
2013-03-02 06:41:00,32.4,32.1,29.71,North,0,4.3,-999.0,99,-99.99,,,0.00,Acu-Link.com,2013-03-02 11:41:00,
2013-03-02 06:56:00,32.4,32.1,29.71,NNW,337,6.3,-999.0,99,-99.99,,,0.00,Acu-Link.com,2013-03-02 11:56:00,
2013-03-02 07:12:00,32.4,32.1,29.71,NNW,337,5.1,-999.0,99,-99.99,,,0.00,Acu-Link.com,2013-03-02 12:12:00,
2013-03-02 07:27:00,32.9,32.7,29.72,West,270,3.1,-999.0,99,-99.99,,,0.00,Acu-Link.com,2013-03-02 12:27:00,
2013-03-02 07:43:00,35.4,35.2,29.71,ESE,112,2.7,-999.0,99,-99.99,,,0.00,Acu-Link.com,2013-03-02 12:43:00,
2013-03-02 07:58:00,35.8,35.5,29.72,NNW,337,2.2,-999.0,99,-99.99,,,0.00,Acu-Link.com,2013-03-02 12:58:00,
2013-03-02 08:13:00,36.1,35.9,29.71,West,270,5.8,-999.0,99,-99.99,,,0.00,Acu-Link.com,2013-03-02 13:13:00,
2013-03-02 08:29:00,36.5,36.2,29.71,SW,225,6.3,-999.0,99,-99.99,,,0.00,Acu-Link.com,2013-03-02 13:29:00,
2013-03-02 08:44:00,37.4,37.1,29.71,SSW,202,4.3,-999.0,99,-99.99,,,0.00,Acu-Link.com,2013-03-02 13:44:00,
2013-03-02 08:59:00,38.3,37.8,29.71,NNW,337,7.4,-999.0,98,-99.99,,,0.00,Acu-Link.com,2013-03-02 13:59:00,
2013-03-02 09:14:00,40.1,39.6,29.71,West,270,6.7,-999.0,98,-99.99,,,0.00,Acu-Link.com,2013-03-02 14:14:00,
2013-03-02 09:29:00,38.8,38.3,29.70,WNW,292,6.7,-999.0,98,-99.99,,,0.00,Acu-Link.com,2013-03-02 14:29:00,
2013-03-02 09:45:00,38.7,38.1,29.70,West,270,6.3,-999.0,98,-99.99,,,0.00,Acu-Link.com,2013-03-02 14:45:00,
2013-03-02 10:00:00,38.3,37.8,29.70,NE,45,5.1,-999.0,98,-99.99,,,0.00,Acu-Link.com,2013-03-02 15:00:00,
2013-03-02 10:15:00,38.1,37.6,29.69,WNW,292,6.3,-999.0,98,-99.99,,,0.00,Acu-Link.com,2013-03-02 15:15:00,
2013-03-02 10:30:00,38.1,37.3,29.70,North,0,4.7,-999.0,97,-99.99,,,0.00,Acu-Link.com,2013-03-02 15:30:00,
2013-03-02 10:45:00,38.5,21.0,29.70,North,0,3.1,-999.0,49,-99.99,,,0.00,Acu-Link.com,2013-03-02 15:45:00,
2013-03-02 11:01:00,38.7,38.1,29.70,WSW,247,3.8,-999.0,98,-99.99,,,0.00,Acu-Link.com,2013-03-02 16:01:00,
2013-03-02 11:16:00,38.3,37.8,29.69,West,270,4.7,-999.0,98,-99.99,,,0.00,Acu-Link.com,2013-03-02 16:16:00,
2013-03-02 11:31:00,38.3,37.8,29.69,West,270,5.8,-999.0,98,-99.99,,,0.00,Acu-Link.com,2013-03-02 16:31:00,
2013-03-02 11:46:00,38.7,38.1,29.68,North,0,4.7,-999.0,98,-99.99,,,0.00,Acu-Link.com,2013-03-02 16:46:00,
2013-03-02 12:01:00,38.8,38.3,29.68,West,270,4.7,-999.0,98,-99.99,,,0.00,Acu-Link.com,2013-03-02 17:01:00,
2013-03-02 12:17:00,39.0,3.4,29.68,NNE,22,5.1,-999.0,22,-99.99,,,0.00,Acu-Link.com,2013-03-02 17:17:00,
2013-03-02 12:32:00,39.0,38.8,29.68,SE,135,4.3,-999.0,99,-99.99,,,0.00,Acu-Link.com,2013-03-02 17:32:00,
2013-03-02 12:47:00,39.4,39.1,29.68,SSW,202,1.6,-999.0,99,-99.99,,,0.00,Acu-Link.com,2013-03-02 17:47:00,
2013-03-02 13:02:00,39.4,39.1,29.68,NW,315,2.7,-999.0,99,-99.99,,,0.00,Acu-Link.com,2013-03-02 18:02:00,
2013-03-02 13:17:00,39.6,39.3,29.67,WSW,247,2.7,-999.0,99,-99.99,,,0.00,Acu-Link.com,2013-03-02 18:17:00,
2013-03-02 13:33:00,39.7,39.5,29.67,SW,225,1.6,-999.0,99,-99.99,,,0.00,Acu-Link.com,2013-03-02 18:33:00,
2013-03-02 13:48:00,39.9,39.7,29.67,West,270,3.8,-999.0,99,-99.99,,,0.00,Acu-Link.com,2013-03-02 18:48:00,
2013-03-02 14:03:00,40.1,39.8,29.67,WNW,292,2.2,-999.0,99,-99.99,,,0.00,Acu-Link.com,2013-03-02 19:03:00,
2013-03-02 14:18:00,40.3,40.0,29.66,WSW,247,2.7,-999.0,99,-99.99,,,0.00,Acu-Link.com,2013-03-02 19:18:00,
2013-03-02 14:34:00,39.9,39.7,29.66,WSW,247,2.2,-999.0,99,-99.99,,,0.00,Acu-Link.com,2013-03-02 19:34:00,
2013-03-02 14:49:00,39.9,39.7,29.66,WSW,247,4.7,-999.0,99,-99.99,,,0.00,Acu-Link.com,2013-03-02 19:49:00,
2013-03-02 15:04:00,40.1,39.8,29.66,WSW,247,4.7,-999.0,99,-99.99,,,0.00,Acu-Link.com,2013-03-02 20:04:00,
2013-03-02 15:19:00,39.9,39.7,29.65,WNW,292,3.8,-999.0,99,-99.99,,,0.00,Acu-Link.com,2013-03-02 20:19:00,
2013-03-02 15:34:00,39.7,39.5,29.65,NNE,22,4.3,-999.0,99,-99.99,,,0.00,Acu-Link.com,2013-03-02 20:34:00,
2013-03-02 15:50:00,39.9,39.7,29.65,West,270,0.0,-999.0,99,-99.99,,,0.00,Acu-Link.com,2013-03-02 20:50:00,
2013-03-02 16:05:00,39.4,39.1,29.65,West,270,3.8,-999.0,99,-99.99,,,0.00,Acu-Link.com,2013-03-02 21:05:00,
2013-03-02 16:20:00,39.2,-26.0,29.64,West,270,4.3,-999.0,5,-99.99,,,0.00,Acu-Link.com,2013-03-02 21:20:00,
2013-03-02 16:35:00,39.2,38.9,29.64,WNW,292,2.2,-999.0,99,-99.99,,,0.00,Acu-Link.com,2013-03-02 21:35:00,
2013-03-02 16:50:00,38.8,20.4,29.65,NNW,337,3.1,-999.0,47,-99.99,,,0.00,Acu-Link.com,2013-03-02 21:50:00,
2013-03-02 17:06:00,38.8,24.5,29.65,NW,315,1.1,-999.0,56,-99.99,,,0.00,Acu-Link.com,2013-03-02 22:06:00,
2013-03-02 17:21:00,38.5,36.4,29.65,WSW,247,2.2,-999.0,92,-99.99,,,0.00,Acu-Link.com,2013-03-02 22:21:00,
2013-03-02 17:36:00,38.3,37.8,29.66,WSW,247,3.8,-999.0,98,-99.99,,,0.00,Acu-Link.com,2013-03-02 22:36:00,
2013-03-02 17:51:00,38.1,37.6,29.66,ESE,112,3.8,-999.0,98,-99.99,,,0.00,Acu-Link.com,2013-03-02 22:51:00,
2013-03-02 18:06:00,37.9,37.4,29.67,West,270,6.3,-999.0,98,-99.99,,,0.00,Acu-Link.com,2013-03-02 23:06:00,
2013-03-02 18:22:00,37.8,37.2,29.67,ESE,112,4.3,-999.0,98,-99.99,,,0.00,Acu-Link.com,2013-03-02 23:22:00,
2013-03-02 18:37:00,37.6,37.1,29.67,South,180,3.1,-999.0,98,-99.99,,,0.00,Acu-Link.com,2013-03-02 23:37:00,
2013-03-02 18:52:00,37.2,36.7,29.68,NW,315,2.2,-999.0,98,-99.99,,,0.00,Acu-Link.com,2013-03-02 23:52:00,
2013-03-02 19:07:00,37.2,36.7,29.67,West,270,4.7,-999.0,98,-99.99,,,0.00,Acu-Link.com,2013-03-03 00:07:00,
2013-03-02 19:23:00,37.0,36.5,29.68,WNW,292,3.1,-999.0,98,-99.99,,,0.00,Acu-Link.com,2013-03-03 00:23:00,
2013-03-02 19:38:00,36.9,36.6,29.68,North,0,2.7,-999.0,99,-99.99,,,0.00,Acu-Link.com,2013-03-03 00:38:00,
2013-03-02 19:53:00,36.5,36.2,29.68,WSW,247,3.1,-999.0,99,-99.99,,,0.00,Acu-Link.com,2013-03-03 00:53:00,
2013-03-02 20:08:00,36.5,36.2,29.68,WSW,247,4.3,-999.0,99,-99.99,,,0.00,Acu-Link.com,2013-03-03 01:08:00,
2013-03-02 20:23:00,36.3,36.1,29.68,NNW,337,3.1,-999.0,99,-99.99,,,0.00,Acu-Link.com,2013-03-03 01:23:00,
2013-03-02 20:39:00,36.3,36.1,29.68,West,270,5.1,-999.0,99,-99.99,,,0.00,Acu-Link.com,2013-03-03 01:39:00,
2013-03-02 20:54:00,36.3,36.1,29.68,NW,315,4.3,-999.0,99,-99.99,,,0.00,Acu-Link.com,2013-03-03 01:54:00,
2013-03-02 21:09:00,36.3,36.1,29.68,NW,315,2.2,-999.0,99,-99.99,,,0.00,Acu-Link.com,2013-03-03 02:09:00,
2013-03-02 21:24:00,36.1,35.9,29.68,WNW,292,3.8,-999.0,99,-99.99,,,0.00,Acu-Link.com,2013-03-03 02:24:00,
2013-03-02 21:39:00,36.1,35.9,29.68,WSW,247,2.2,-999.0,99,-99.99,,,0.00,Acu-Link.com,2013-03-03 02:39:00,
2013-03-02 21:55:00,36.0,35.7,29.67,NNW,337,3.1,-999.0,99,-99.99,,,0.00,Acu-Link.com,2013-03-03 02:55:00,
2013-03-02 22:10:00,35.8,35.5,29.67,WSW,247,2.2,-999.0,99,-99.99,,,0.00,Acu-Link.com,2013-03-03 03:10:00,
2013-03-02 22:25:00,35.6,35.3,29.67,NW,315,4.7,-999.0,99,-99.99,,,0.00,Acu-Link.com,2013-03-03 03:25:00,
2013-03-02 22:40:00,35.6,35.3,29.66,NW,315,2.2,-999.0,99,-99.99,,,0.00,Acu-Link.com,2013-03-03 03:40:00,
2013-03-02 22:55:00,35.4,35.2,29.66,North,0,2.7,-999.0,99,-99.99,,,0.00,Acu-Link.com,2013-03-03 03:55:00,
2013-03-02 23:11:00,35.2,35.0,29.66,West,270,5.1,-999.0,99,-99.99,,,0.00,Acu-Link.com,2013-03-03 04:11:00,
2013-03-02 23:26:00,35.1,34.8,29.66,North,0,4.3,-999.0,99,-99.99,,,0.00,Acu-Link.com,2013-03-03 04:26:00,
2013-03-02 23:41:00,34.9,34.6,29.65,North,0,1.1,-999.0,99,-99.99,,,0.00,Acu-Link.com,2013-03-03 04:41:00,
2013-03-02 23:56:00,34.7,34.4,29.65,West,270,3.8,-999.0,99,-99.99,,,0.00,Acu-Link.com,2013-03-03 04:56:00,